Time;durP1;ratioP1;P1;durP2;ratioP2;P2;SDS_P1;SDS_P2;PMS_P1;PMS_P2;Temp;Humidity;BMP_temperature;BMP_pressure;BME280_temperature;BME280_humidity;BME280_pressure;Samples;Min_cycle;Max_cycle;Signal;HPM_P1;HPM_P2
2022/12/12 00:01:26;;;;;;;;;;;;;;;;;;5096220;28;19908;-74
2022/12/12 00:03:52;;;;;;;;;;;;;;;;;;5096710;28;20058;-75
2022/12/12 00:06:18;;;;;;;;;;;;;;;;;;5096531;28;19908;-75
2022/12/12 00:08:44;;;;;;;;;;;;;;;;;;5096092;28;20328;-74
2022/12/12 00:11:10;;;;;;;;;;;;;;;;;;5096503;28;19908;-74
2022/12/12 00:13:36;;;;;;;;;;;;;;;;;;5096402;28;19931;-74
2022/12/12 00:16:02;;;;;;;;;;;;;;;;;;5095474;28;20320;-74
2022/12/12 00:18:28;;;;;;;;;;;;;;;;;;5096248;28;19996;-74
2022/12/12 00:20:54;;;;;;;;;;;;;;;;;;5078088;28;19909;-74
2022/12/12 00:23:20;;;;;;;;;;;;;;;;;;5095720;28;19969;-74
2022/12/12 00:25:46;;;;;;;;;;;;;;;;;;5078006;28;19908;-74
2022/12/12 00:28:11;;;;;;;;;;;;;;;;;;5095694;28;19908;-74
2022/12/12 00:30:37;;;;;;;;;;;;;;;;;;5096029;28;19954;-74
2022/12/12 00:33:03;;;;;;;;;;;;;;;;;;5096044;28;19915;-74
2022/12/12 00:35:29;;;;;;;;;;;;;;;;;;5095578;28;19908;-75
2022/12/12 00:37:55;;;;;;;;;;;;;;;;;;5095897;28;19909;-75
2022/12/12 00:40:21;;;;;;;;;;;;;;;;;;5096196;28;19908;-75
2022/12/12 00:42:47;;;;;;;;;;;;;;;;;;5095197;28;19956;-74
2022/12/12 00:45:13;;;;;;;;;;;;;;;;;;5095821;28;19915;-74
2022/12/12 00:47:39;;;;;;;;;;;;;;;;;;5095740;28;19908;-74
2022/12/12 00:50:05;;;;;;;;;;;;;;;;;;5095372;28;20429;-74
2022/12/12 00:52:31;;;;;;;;;;;;;;;;;;5077435;28;19939;-74
2022/12/12 00:54:57;;;;;;;;;;;;;;;;;;5095645;28;19991;-74
2022/12/12 00:57:23;;;;;;;;;;;;;;;;;;5095191;28;20337;-74
2022/12/12 00:59:49;;;;;;;;;;;;;;;;;;5095453;28;19977;-74
2022/12/12 01:02:14;;;;;;;;;;;;;;;;;;5095329;28;20296;-74
2022/12/12 01:04:40;;;;;;;;;;;;;;;;;;5076829;28;19959;-74
2022/12/12 01:07:06;;;;;;;;;;;;;;;;;;5095714;28;20003;-74
2022/12/12 01:09:33;;;;;;;;;;;;;;;;;;5095778;28;20250;-74
2022/12/12 01:11:59;;;;;;;;;;;;;;;;;;5094812;28;19940;-74
2022/12/12 01:14:24;;;;;;;;;;;;;;;;;;5095166;28;19908;-72
2022/12/12 01:16:50;;;;;;;;;;;;;;;;;;5095274;28;19912;-72
2022/12/12 01:19:16;;;;;;;;;;;;;;;;;;5094742;28;19916;-72
2022/12/12 01:21:42;;;;;;;;;;;;;;;;;;5095338;28;19915;-75
2022/12/12 01:24:08;;;;;;;;;;;;;;;;;;5094900;28;19963;-72
2022/12/12 01:26:35;;;;;;;;;;;;;;;;;;5093796;28;19908;-72
2022/12/12 01:29:00;;;;;;;;;;;;;;;;;;5095106;28;20408;-74
2022/12/12 01:31:26;;;;;;;;;;;;;;;;;;5094485;28;19969;-72
2022/12/12 01:33:52;;;;;;;;;;;;;;;;;;5095022;28;19912;-73
2022/12/12 01:36:18;;;;;;;;;;;;;;;;;;5076619;28;19909;-74
2022/12/12 01:38:44;;;;;;;;;;;;;;;;;;5094379;28;20010;-73
2022/12/12 01:41:10;;;;;;;;;;;;;;;;;;5076499;28;19913;-73
2022/12/12 01:43:36;;;;;;;;;;;;;;;;;;5076196;28;20007;-72
2022/12/12 01:46:02;;;;;;;;;;;;;;;;;;5076067;28;19953;-73
2022/12/12 01:48:28;;;;;;;;;;;;;;;;;;5094559;28;19912;-73
2022/12/12 01:50:54;;;;;;;;;;;;;;;;;;5094551;28;19911;-73
2022/12/12 01:53:20;;;;;;;;;;;;;;;;;;5094011;28;19948;-73
2022/12/12 01:55:46;;;;;;;;;;;;;;;;;;5094438;28;19909;-73
2022/12/12 01:58:12;;;;;;;;;;;;;;;;;;5094358;28;19908;-73
2022/12/12 02:00:38;;;;;;;;;;;;;;;;;;5075696;28;20003;-73
2022/12/12 02:03:04;;;;;;;;;;;;;;;;;;5094218;28;19939;-73
2022/12/12 02:05:30;;;;;;;;;;;;;;;;;;5094243;28;19908;-73
2022/12/12 02:07:55;;;;;;;;;;;;;;;;;;5075610;28;20053;-73
2022/12/12 02:10:21;;;;;;;;;;;;;;;;;;5094201;28;19961;-73
2022/12/12 02:12:47;;;;;;;;;;;;;;;;;;5094111;28;19912;-73
2022/12/12 02:15:13;;;;;;;;;;;;;;;;;;5075488;28;19914;-73
2022/12/12 02:17:39;;;;;;;;;;;;;;;;;;5075864;28;19934;-73
2022/12/12 02:20:05;;;;;;;;;;;;;;;;;;5094085;28;19908;-73
2022/12/12 02:22:31;;;;;;;;;;;;;;;;;;5093531;28;19918;-72
2022/12/12 02:24:57;;;;;;;;;;;;;;;;;;5093964;28;19912;-73
2022/12/12 02:27:23;;;;;;;;;;;;;;;;;;5075826;28;19908;-72
2022/12/12 02:29:49;;;;;;;;;;;;;;;;;;5093541;28;20372;-73
2022/12/12 02:32:15;;;;;;;;;;;;;;;;;;5093919;28;20319;-72
2022/12/12 02:34:41;;;;;;;;;;;;;;;;;;5093371;28;20363;-72
2022/12/12 02:37:07;;;;;;;;;;;;;;;;;;5075704;28;20368;-73
2022/12/12 02:39:33;;;;;;;;;;;;;;;;;;5094184;28;20402;-73
2022/12/12 02:41:59;;;;;;;;;;;;;;;;;;5093060;28;19985;-74
2022/12/12 02:44:24;;;;;;;;;;;;;;;;;;5075583;28;19908;-72
2022/12/12 02:46:50;;;;;;;;;;;;;;;;;;5075610;28;19912;-72
2022/12/12 02:49:17;;;;;;;;;;;;;;;;;;5075203;28;19973;-72
2022/12/12 02:51:43;;;;;;;;;;;;;;;;;;5093647;28;20422;-73
2022/12/12 02:54:09;;;;;;;;;;;;;;;;;;5093920;28;19908;-73
2022/12/12 02:56:35;;;;;;;;;;;;;;;;;;5093305;28;20341;-73
2022/12/12 02:59:01;;;;;;;;;;;;;;;;;;5093750;28;20395;-73
2022/12/12 03:01:27;;;;;;;;;;;;;;;;;;5093750;28;19908;-73
2022/12/12 03:09:22;;;;;;;;;;;;;;;;;;5093862;28;19915;-73
2022/12/12 03:11:48;;;;;;;;;;;;;;;;;;5074945;28;20000;-74
2022/12/12 03:14:14;;;;;;;;;;;;;;;;;;5093505;28;19998;-73
2022/12/12 03:16:40;;;;;;;;;;;;;;;;;;5093467;28;19912;-73
2022/12/12 03:19:06;;;;;;;;;;;;;;;;;;5093109;28;19912;-73
2022/12/12 03:21:32;;;;;;;;;;;;;;;;;;5093439;28;19991;-73
2022/12/12 03:23:58;;;;;;;;;;;;;;;;;;5092935;28;19917;-72
2022/12/12 03:26:23;;;;;;;;;;;;;;;;;;5093299;28;19909;-73
2022/12/12 03:28:49;;;;;;;;;;;;;;;;;;5093515;28;20037;-73
2022/12/12 03:31:15;;;;;;;;;;;;;;;;;;5092864;28;19912;-73
2022/12/12 03:33:41;;;;;;;;;;;;;;;;;;5075139;28;19975;-72
2022/12/12 03:36:07;;;;;;;;;;;;;;;;;;5075466;28;20311;-73
2022/12/12 03:38:33;;;;;;;;;;;;;;;;;;5074614;28;19908;-73
2022/12/12 03:40:59;;;;;;;;;;;;;;;;;;5093241;28;19909;-73
2022/12/12 03:43:25;;;;;;;;;;;;;;;;;;5093054;28;19934;-73
2022/12/12 03:45:51;;;;;;;;;;;;;;;;;;5093149;28;20413;-74
2022/12/12 03:48:17;;;;;;;;;;;;;;;;;;5075048;28;19908;-74
2022/12/12 03:50:43;;;;;;;;;;;;;;;;;;5095075;28;19912;-74
2022/12/12 03:53:09;;;;;;;;;;;;;;;;;;5096423;28;19951;-75
2022/12/12 03:55:37;;;;;;;;;;;;;;;;;;5097028;28;19908;-74
2022/12/12 03:58:03;;;;;;;;;;;;;;;;;;5078600;28;20360;-75
2022/12/12 04:00:29;;;;;;;;;;;;;;;;;;5078103;28;19916;-73
2022/12/12 04:02:55;;;;;;;;;;;;;;;;;;5096566;28;19912;-74
2022/12/12 04:05:21;;;;;;;;;;;;;;;;;;5096607;28;19912;-75
2022/12/12 04:07:48;;;;;;;;;;;;;;;;;;5096187;28;19919;-75
2022/12/12 04:12:59;;;;;;;;;;;;;;;;;;5096490;28;19962;-74
2022/12/12 04:15:25;;;;;;;;;;;;;;;;;;5096054;28;19916;-73
2022/12/12 04:17:51;;;;;;;;;;;;;;;;;;5096527;28;19998;-73
2022/12/12 04:23:14;;;;;;;;;;;;;;;;;;5096270;28;19923;-73
2022/12/12 04:26:37;;;;;;;;;;;;;;;;;;5077987;28;20284;-73
2022/12/12 04:28:25;;;;;;;;;;;;;;;;;;5095462;28;20002;-73
2022/12/12 04:30:51;;;;;;;;;;;;;;;;;;5096087;28;19969;-73
2022/12/12 04:33:17;;;;;;;;;;;;;;;;;;5096065;28;19912;-73
2022/12/12 04:35:43;;;;;;;;;;;;;;;;;;5095491;28;19915;-73
2022/12/12 04:38:09;;;;;;;;;;;;;;;;;;5095939;28;19951;-73
2022/12/12 04:40:35;;;;;;;;;;;;;;;;;;5095893;28;19961;-74
2022/12/12 04:43:01;;;;;;;;;;;;;;;;;;5095229;28;19927;-74
2022/12/12 04:45:27;;;;;;;;;;;;;;;;;;5077878;28;19999;-76
2022/12/12 04:47:53;;;;;;;;;;;;;;;;;;5095745;28;19908;-74
2022/12/12 04:50:19;;;;;;;;;;;;;;;;;;5095442;28;19915;-75
2022/12/12 04:52:45;;;;;;;;;;;;;;;;;;5095670;28;19991;-74
2022/12/12 04:55:11;;;;;;;;;;;;;;;;;;5095595;28;19912;-74
2022/12/12 04:57:39;;;;;;;;;;;;;;;;;;5095108;28;19915;-75
2022/12/12 05:00:05;;;;;;;;;;;;;;;;;;5095487;28;20381;-74
2022/12/12 05:02:31;;;;;;;;;;;;;;;;;;5095760;28;20047;-73
2022/12/12 05:04:57;;;;;;;;;;;;;;;;;;5095987;28;19908;-74
2022/12/12 05:07:23;;;;;;;;;;;;;;;;;;5095418;28;19990;-73
2022/12/12 05:09:49;;;;;;;;;;;;;;;;;;5094986;28;19908;-73
2022/12/12 05:12:16;;;;;;;;;;;;;;;;;;5095263;28;19962;-73
2022/12/12 05:14:42;;;;;;;;;;;;;;;;;;5077121;28;20379;-74
2022/12/12 05:17:08;;;;;;;;;;;;;;;;;;5094744;28;19909;-74
2022/12/12 05:19:34;;;;;;;;;;;;;;;;;;5095540;28;19915;-74
2022/12/12 05:22:00;;;;;;;;;;;;;;;;;;5076817;28;19909;-75
2022/12/12 05:24:30;;;;;;;;;;;;;;;;;;5094579;28;20015;-74
2022/12/12 05:26:56;;;;;;;;;;;;;;;;;;5095162;28;19908;-75
2022/12/12 05:29:22;;;;;;;;;;;;;;;;;;5094947;28;20326;-73
2022/12/12 05:31:48;;;;;;;;;;;;;;;;;;5094598;28;20371;-74
2022/12/12 05:34:13;;;;;;;;;;;;;;;;;;5094836;28;19916;-74
2022/12/12 05:36:39;;;;;;;;;;;;;;;;;;5095249;28;19908;-75
2022/12/12 05:39:05;;;;;;;;;;;;;;;;;;5094636;28;19908;-75
2022/12/12 05:41:31;;;;;;;;;;;;;;;;;;5076616;28;19934;-75
2022/12/12 05:43:57;;;;;;;;;;;;;;;;;;5094436;28;19923;-74
2022/12/12 05:46:23;;;;;;;;;;;;;;;;;;5094325;28;19908;-75
2022/12/12 05:48:49;;;;;;;;;;;;;;;;;;5076385;28;19970;-75
2022/12/12 05:51:15;;;;;;;;;;;;;;;;;;5094533;28;19914;-75
2022/12/12 05:53:41;;;;;;;;;;;;;;;;;;5094113;28;20275;-75
2022/12/12 05:56:10;;;;;;;;;;;;;;;;;;5094734;28;19908;-75
2022/12/12 05:58:36;;;;;;;;;;;;;;;;;;5076139;28;19908;-75
2022/12/12 06:01:02;;;;;;;;;;;;;;;;;;5094382;28;19908;-75
2022/12/12 06:03:27;;;;;;;;;;;;;;;;;;5094227;28;19923;-74
2022/12/12 06:05:54;;;;;;;;;;;;;;;;;;5075663;28;19909;-74
2022/12/12 06:08:19;;;;;;;;;;;;;;;;;;5094180;28;19908;-74
2022/12/12 06:10:45;;;;;;;;;;;;;;;;;;5094383;28;19908;-74
2022/12/12 06:13:11;;;;;;;;;;;;;;;;;;5093473;28;19915;-84
2022/12/12 06:15:37;;;;;;;;;;;;;;;;;;5076626;28;19969;-84
2022/12/12 06:18:03;;;;;;;;;;;;;;;;;;5092932;28;19915;-82
2022/12/12 06:20:30;;;;;;;;;;;;;;;;;;5082952;28;20076;-74
2022/12/12 06:22:56;;;;;;;;;;;;;;;;;;5093086;28;19919;-76
2022/12/12 06:25:22;;;;;;;;;;;;;;;;;;5075447;28;20272;-74
2022/12/12 06:27:48;;;;;;;;;;;;;;;;;;5093299;28;19919;-76
2022/12/12 06:30:14;;;;;;;;;;;;;;;;;;5089040;28;19933;-74
2022/12/12 06:32:40;;;;;;;;;;;;;;;;;;5092683;28;20335;-74
2022/12/12 06:35:06;;;;;;;;;;;;;;;;;;5092959;28;19909;-74
2022/12/12 06:37:32;;;;;;;;;;;;;;;;;;5074425;28;20273;-71
2022/12/12 06:39:58;;;;;;;;;;;;;;;;;;5091516;28;19915;-77
2022/12/12 06:42:24;;;;;;;;;;;;;;;;;;5090306;28;19920;-73
2022/12/12 06:44:50;;;;;;;;;;;;;;;;;;5091310;28;19912;-72
2022/12/12 06:47:16;;;;;;;;;;;;;;;;;;5090994;28;19998;-76
2022/12/12 06:49:42;;;;;;;;;;;;;;;;;;5091593;28;19908;-74
2022/12/12 06:52:07;;;;;;;;;;;;;;;;;;5091635;28;19993;-75
2022/12/12 06:54:33;;;;;;;;;;;;;;;;;;5091307;28;19942;-74
2022/12/12 06:56:59;;;;;;;;;;;;;;;;;;5072919;28;19947;-75
2022/12/12 06:59:28;;;;;;;;;;;;;;;;;;5070855;28;19915;-74
2022/12/12 07:01:54;;;;;;;;;;;;;;;;;;5087353;28;19962;-73
2022/12/12 07:04:20;;;;;;;;;;;;;;;;;;5086296;28;19920;-73
2022/12/12 07:06:46;;;;;;;;;;;;;;;;;;5068636;28;19908;-72
2022/12/12 07:09:12;;;;;;;;;;;;;;;;;;5086294;28;19941;-73
2022/12/12 07:11:38;;;;;;;;;;;;;;;;;;5064457;28;20310;-70
2022/12/12 07:14:06;;;;;;;;;;;;;;;;;;5010038;28;19909;-70
2022/12/12 07:16:32;;;;;;;;;;;;;;;;;;5005706;28;19937;-68
2022/12/12 07:18:58;;;;;;;;;;;;;;;;;;5009903;28;20362;-68
2022/12/12 07:21:24;;;;;;;;;;;;;;;;;;5008510;28;20468;-70
2022/12/12 07:23:50;;;;;;;;;;;;;;;;;;5009383;28;20286;-70
2022/12/12 07:26:16;;;;;;;;;;;;;;;;;;5007035;28;20388;-68
2022/12/12 07:28:42;;;;;;;;;;;;;;;;;;5006605;28;20290;-69
2022/12/12 07:31:08;;;;;;;;;;;;;;;;;;5013940;28;19909;-70
2022/12/12 07:33:34;;;;;;;;;;;;;;;;;;5012423;28;19939;-71
2022/12/12 07:36:00;;;;;;;;;;;;;;;;;;5008962;28;19937;-70
2022/12/12 07:38:26;;;;;;;;;;;;;;;;;;5009307;28;19917;-74
2022/12/12 07:40:51;;;;;;;;;;;;;;;;;;5011953;28;19909;-71
2022/12/12 07:43:17;;;;;;;;;;;;;;;;;;5011581;28;19921;-73
2022/12/12 07:45:43;;;;;;;;;;;;;;;;;;5000639;28;20009;-70
2022/12/12 07:48:09;;;;;;;;;;;;;;;;;;5032856;28;19909;-69
2022/12/12 07:50:36;;;;;;;;;;;;;;;;;;5035213;28;19998;-68
2022/12/12 07:53:02;;;;;;;;;;;;;;;;;;5032687;28;19913;-68
2022/12/12 07:55:28;;;;;;;;;;;;;;;;;;5032279;28;20290;-69
2022/12/12 07:57:54;;;;;;;;;;;;;;;;;;5032467;28;19916;-72
2022/12/12 08:00:20;;;;;;;;;;;;;;;;;;5032275;28;20000;-70
2022/12/12 08:02:46;;;;;;;;;;;;;;;;;;5033736;28;19917;-70
2022/12/12 08:05:12;;;;;;;;;;;;;;;;;;5032278;28;19913;-71
2022/12/12 08:07:38;;;;;;;;;;;;;;;;;;5033287;28;19955;-68
2022/12/12 08:10:04;;;;;;;;;;;;;;;;;;5032573;28;19916;-69
2022/12/12 08:12:30;;;;;;;;;;;;;;;;;;5031661;28;20023;-69
2022/12/12 08:14:56;;;;;;;;;;;;;;;;;;5032756;28;19909;-68
2022/12/12 08:17:22;;;;;;;;;;;;;;;;;;5032240;28;19935;-69
2022/12/12 08:19:48;;;;;;;;;;;;;;;;;;5028654;28;19909;-72
2022/12/12 08:22:14;;;;;;;;;;;;;;;;;;5031344;28;19920;-70
2022/12/12 08:24:40;;;;;;;;;;;;;;;;;;5032403;28;19971;-71
2022/12/12 08:27:06;;;;;;;;;;;;;;;;;;5031341;28;20031;-70
2022/12/12 08:29:32;;;;;;;;;;;;;;;;;;5031470;28;20350;-71
2022/12/12 08:31:58;;;;;;;;;;;;;;;;;;5032719;28;19909;-72
2022/12/12 08:34:24;;;;;;;;;;;;;;;;;;5030880;28;20058;-70
2022/12/12 08:36:51;;;;;;;;;;;;;;;;;;5031503;28;19909;-77
2022/12/12 08:39:17;;;;;;;;;;;;;;;;;;5033015;28;20332;-71
2022/12/12 08:41:43;;;;;;;;;;;;;;;;;;5032558;28;19913;-71
2022/12/12 08:44:09;;;;;;;;;;;;;;;;;;5033725;28;19924;-70
2022/12/12 08:46:35;;;;;;;;;;;;;;;;;;5030700;28;19913;-71
2022/12/12 08:49:01;;;;;;;;;;;;;;;;;;5025118;28;19921;-70
2022/12/12 08:51:26;;;;;;;;;;;;;;;;;;5031085;28;19913;-70
2022/12/12 08:53:52;;;;;;;;;;;;;;;;;;5031051;28;19909;-73
2022/12/12 08:56:18;;;;;;;;;;;;;;;;;;5028748;28;20479;-73
2022/12/12 08:58:45;;;;;;;;;;;;;;;;;;5029519;28;20370;-73
2022/12/12 09:01:11;;;;;;;;;;;;;;;;;;5028791;28;20003;-72
2022/12/12 09:03:37;;;;;;;;;;;;;;;;;;5026948;28;19924;-76
2022/12/12 09:06:05;;;;;;;;;;;;;;;;;;5031706;28;19917;-75
2022/12/12 09:08:33;;;;;;;;;;;;;;;;;;5030675;28;19909;-82
2022/12/12 09:10:59;;;;;;;;;;;;;;;;;;5028585;28;20413;-77
2022/12/12 09:13:25;;;;;;;;;;;;;;;;;;5006057;28;19927;-73
2022/12/12 09:15:51;;;;;;;;;;;;;;;;;;5027064;28;19959;-76
2022/12/12 09:18:17;;;;;;;;;;;;;;;;;;5031878;28;19971;-72
2022/12/12 09:20:43;;;;;;;;;;;;;;;;;;5031596;28;19917;-73
2022/12/12 09:23:09;;;;;;;;;;;;;;;;;;5018560;28;19932;-73
2022/12/12 09:25:35;;;;;;;;;;;;;;;;;;5029805;28;19960;-73
2022/12/12 09:28:01;;;;;;;;;;;;;;;;;;5030365;28;20365;-72
2022/12/12 09:30:27;;;;;;;;;;;;;;;;;;5030608;28;20011;-68
2022/12/12 09:32:53;;;;;;;;;;;;;;;;;;5031052;28;19935;-69
2022/12/12 09:35:19;;;;;;;;;;;;;;;;;;5030529;28;20004;-69
2022/12/12 09:37:45;;;;;;;;;;;;;;;;;;5062632;28;20110;-69
2022/12/12 09:40:11;;;;;;;;;;;;;;;;;;5031644;28;19913;-67
2022/12/12 09:42:37;;;;;;;;;;;;;;;;;;5062770;28;20512;-67
2022/12/12 09:45:03;;;;;;;;;;;;;;;;;;5031144;28;19984;-66
2022/12/12 09:47:29;;;;;;;;;;;;;;;;;;5029550;28;19917;-68
2022/12/12 09:49:55;;;;;;;;;;;;;;;;;;5032726;28;19913;-68
2022/12/12 09:52:38;;;;;;;;;;;;;;;;;;5087711;27;19920;-67
2022/12/12 09:55:04;;;;;;;;;;;;;;;;;;5078471;28;19923;-68
2022/12/12 09:57:30;;;;;;;;;;;;;;;;;;5069805;28;19916;-68
2022/12/12 09:59:55;;;;;;;;;;;;;;;;;;5071188;28;20000;-69
2022/12/12 10:02:21;;;;;;;;;;;;;;;;;;5089546;28;19909;-68
2022/12/12 10:04:47;;;;;;;;;;;;;;;;;;5082586;28;19916;-69
2022/12/12 10:08:30;;;;;;;;;;;;;;;;;;5089710;27;19923;-68
2022/12/12 10:10:56;;;;;;;;;;;;;;;;;;5090003;28;20007;-67
2022/12/12 10:13:52;;;;;;;;;;;;;;;;;;5150419;27;19912;-66
2022/12/12 10:16:18;;;;;;;;;;;;;;;;;;5131915;27;20503;-66
2022/12/12 10:18:44;;;;;;;;;;;;;;;;;;5128779;28;19908;-67
2022/12/12 10:21:40;;;;;;;;;;;;;;;;;;4976392;27;4827914;-65
2022/12/12 10:24:06;;;;;;;;;;;;;;;;;;5142301;27;19915;-66
2022/12/12 10:27:49;;;;;;;;;;;;;;;;;;5068912;27;19924;-67
2022/12/12 10:30:15;;;;;;;;;;;;;;;;;;5067742;28;19982;-69
2022/12/12 10:32:41;;;;;;;;;;;;;;;;;;5067645;28;20377;-68
2022/12/12 10:35:07;;;;;;;;;;;;;;;;;;5065986;28;19991;-69
2022/12/12 10:37:34;;;;;;;;;;;;;;;;;;5066855;28;20016;-68
2022/12/12 10:40:36;;;;;;;;;;;;;;;;;;5089893;28;19926;-67
2022/12/12 10:43:02;;;;;;;;;;;;;;;;;;5089996;28;20380;-69
2022/12/12 10:47:42;;;;;;;;;;;;;;;;;;5090243;27;19916;-68
2022/12/12 10:50:08;;;;;;;;;;;;;;;;;;5081455;28;19923;-65
2022/12/12 10:52:34;;;;;;;;;;;;;;;;;;5088138;28;19912;-69
2022/12/12 10:58:38;;;;;;;;;;;;;;;;;;5044116;28;19928;-67
2022/12/12 11:01:04;;;;;;;;;;;;;;;;;;5028058;28;19913;-68
2022/12/12 11:04:54;;;;;;;;;;;;;;;;;;5089613;27;19916;-70
2022/12/12 11:08:26;;;;;;;;;;;;;;;;;;5089729;27;19916;-68
2022/12/12 11:10:52;;;;;;;;;;;;;;;;;;5089078;28;19951;-72
2022/12/12 11:15:08;;;;;;;;;;;;;;;;;;5089469;27;19912;-70
2022/12/12 11:17:34;;;;;;;;;;;;;;;;;;5090295;28;19922;-70
2022/12/12 11:20:01;;;;;;;;;;;;;;;;;;5090382;28;20002;-71
2022/12/12 11:22:27;;;;;;;;;;;;;;;;;;5090178;28;19918;-70
2022/12/12 11:24:53;;;;;;;;;;;;;;;;;;5090344;28;19908;-71
2022/12/12 11:27:19;;;;;;;;;;;;;;;;;;5089931;28;20010;-68
2022/12/12 11:29:45;;;;;;;;;;;;;;;;;;5089442;28;19917;-70
2022/12/12 11:32:11;;;;;;;;;;;;;;;;;;5080255;28;19912;-71
2022/12/12 11:34:37;;;;;;;;;;;;;;;;;;5068292;28;19917;-70
2022/12/12 11:39:07;;;;;;;;;;;;;;;;;;5150790;27;20339;-67
2022/12/12 11:41:33;;;;;;;;;;;;;;;;;;5150832;27;20003;-72
2022/12/12 11:44:00;;;;;;;;;;;;;;;;;;5133119;27;20347;-70
2022/12/12 11:46:26;;;;;;;;;;;;;;;;;;5150144;27;20002;-69
2022/12/12 11:48:52;;;;;;;;;;;;;;;;;;5151589;27;19950;-69
2022/12/12 11:51:18;;;;;;;;;;;;;;;;;;5151082;27;19919;-69
2022/12/12 11:53:44;;;;;;;;;;;;;;;;;;5149682;27;19915;-69
2022/12/12 11:56:10;;;;;;;;;;;;;;;;;;5133946;27;19907;-67
2022/12/12 11:58:38;;;;;;;;;;;;;;;;;;5140162;27;19964;-68
2022/12/12 12:01:04;;;;;;;;;;;;;;;;;;5127632;27;19938;-66
2022/12/12 12:03:30;;;;;;;;;;;;;;;;;;5110925;27;19958;-68
2022/12/12 12:05:56;;;;;;;;;;;;;;;;;;5148742;27;19951;-68
2022/12/12 12:08:22;;;;;;;;;;;;;;;;;;5147527;27;19950;-68
2022/12/12 12:10:48;;;;;;;;;;;;;;;;;;5054687;27;19928;-68
2022/12/12 12:15:45;;;;;;;;;;;;;;;;;;5090765;27;19916;-70
2022/12/12 12:18:37;;;;;;;;;;;;;;;;;;5103017;27;19916;-66
2022/12/12 12:21:03;;;;;;;;;;;;;;;;;;5130093;27;20366;-67
2022/12/12 12:23:29;;;;;;;;;;;;;;;;;;5130853;27;19912;-67
2022/12/12 12:25:55;;;;;;;;;;;;;;;;;;5130368;27;19911;-67
2022/12/12 12:28:21;;;;;;;;;;;;;;;;;;5130807;27;20002;-67
2022/12/12 12:30:47;;;;;;;;;;;;;;;;;;5130149;27;19907;-67
2022/12/12 12:33:13;;;;;;;;;;;;;;;;;;5128718;27;19908;-67
2022/12/12 12:35:39;;;;;;;;;;;;;;;;;;5102692;27;19939;-67
2022/12/12 12:38:05;;;;;;;;;;;;;;;;;;5098954;28;19924;-67
2022/12/12 12:40:31;;;;;;;;;;;;;;;;;;5088294;28;19909;-67
2022/12/12 12:42:57;;;;;;;;;;;;;;;;;;5107643;28;19908;-67
2022/12/12 12:45:23;;;;;;;;;;;;;;;;;;5106946;28;19912;-67
2022/12/12 12:47:51;;;;;;;;;;;;;;;;;;5106467;28;20368;-67
2022/12/12 12:50:17;;;;;;;;;;;;;;;;;;5105027;28;19908;-68
2022/12/12 12:52:43;;;;;;;;;;;;;;;;;;5106087;28;19912;-66
2022/12/12 12:55:09;;;;;;;;;;;;;;;;;;5104491;28;19908;-69
2022/12/12 12:57:34;;;;;;;;;;;;;;;;;;5106510;28;19923;-67
2022/12/12 13:00:00;;;;;;;;;;;;;;;;;;5104535;28;19908;-68
2022/12/12 13:02:26;;;;;;;;;;;;;;;;;;5101185;28;19912;-68
2022/12/12 13:04:53;;;;;;;;;;;;;;;;;;5096214;28;19977;-68
2022/12/12 13:07:18;;;;;;;;;;;;;;;;;;5097236;28;19908;-68
2022/12/12 13:09:44;;;;;;;;;;;;;;;;;;5095873;28;19916;-68
2022/12/12 13:12:10;;;;;;;;;;;;;;;;;;5035557;28;19922;-67
2022/12/12 13:14:36;;;;;;;;;;;;;;;;;;5027430;28;19955;-67
2022/12/12 13:19:31;;;;;;;;;;;;;;;;;;5086655;28;19913;-67
2022/12/12 13:21:57;;;;;;;;;;;;;;;;;;5086478;28;19928;-66
2022/12/12 13:24:23;;;;;;;;;;;;;;;;;;5087248;28;20404;-68
2022/12/12 13:26:49;;;;;;;;;;;;;;;;;;5090239;28;20004;-69
2022/12/12 13:29:14;;;;;;;;;;;;;;;;;;5088405;28;19908;-68
2022/12/12 13:33:59;;;;;;;;;;;;;;;;;;5090889;28;19922;-67
2022/12/12 13:36:25;;;;;;;;;;;;;;;;;;5090225;28;20004;-67
2022/12/12 13:38:51;;;;;;;;;;;;;;;;;;5089317;28;19954;-67
2022/12/12 13:41:17;;;;;;;;;;;;;;;;;;5089153;28;19908;-67
2022/12/12 13:43:43;;;;;;;;;;;;;;;;;;5090165;28;19931;-68
2022/12/12 13:46:09;;;;;;;;;;;;;;;;;;5088181;28;20003;-68
2022/12/12 13:48:35;;;;;;;;;;;;;;;;;;5090355;28;19908;-69
2022/12/12 13:51:01;;;;;;;;;;;;;;;;;;5088632;28;20012;-69
2022/12/12 13:53:27;;;;;;;;;;;;;;;;;;5087706;28;20291;-70
2022/12/12 13:55:53;;;;;;;;;;;;;;;;;;5087291;28;20537;-70
2022/12/12 13:58:19;;;;;;;;;;;;;;;;;;5089764;28;20292;-69
2022/12/12 14:00:45;;;;;;;;;;;;;;;;;;5088615;28;20127;-70
2022/12/12 14:03:11;;;;;;;;;;;;;;;;;;5088211;28;20237;-70
2022/12/12 14:05:38;;;;;;;;;;;;;;;;;;5086521;28;19912;-70
2022/12/12 14:08:04;;;;;;;;;;;;;;;;;;5087790;28;19954;-69
2022/12/12 14:10:30;;;;;;;;;;;;;;;;;;5088481;28;19982;-70
2022/12/12 14:12:56;;;;;;;;;;;;;;;;;;5086789;28;20368;-70
2022/12/12 14:15:22;;;;;;;;;;;;;;;;;;5088781;28;19908;-69
2022/12/12 14:17:48;;;;;;;;;;;;;;;;;;5089436;28;20374;-69
2022/12/12 14:20:14;;;;;;;;;;;;;;;;;;5089763;28;19908;-70
2022/12/12 14:22:40;;;;;;;;;;;;;;;;;;5090316;28;19915;-70
2022/12/12 14:25:06;;;;;;;;;;;;;;;;;;5088621;28;19909;-70
2022/12/12 14:27:32;;;;;;;;;;;;;;;;;;5090308;28;19915;-70
2022/12/12 14:29:58;;;;;;;;;;;;;;;;;;5090259;28;19908;-70
2022/12/12 14:32:23;;;;;;;;;;;;;;;;;;5097159;28;19935;-70
2022/12/12 14:34:49;;;;;;;;;;;;;;;;;;5092281;28;19908;-70
2022/12/12 14:37:15;;;;;;;;;;;;;;;;;;5110441;28;19935;-70
2022/12/12 14:39:41;;;;;;;;;;;;;;;;;;5109921;28;19908;-70
2022/12/12 14:42:07;;;;;;;;;;;;;;;;;;5110334;28;19908;-70
2022/12/12 14:44:33;;;;;;;;;;;;;;;;;;5101547;28;19973;-70
2022/12/12 14:46:59;;;;;;;;;;;;;;;;;;5096213;28;19912;-70
2022/12/12 14:49:25;;;;;;;;;;;;;;;;;;5096678;28;19994;-68
2022/12/12 14:51:51;;;;;;;;;;;;;;;;;;5096524;28;20055;-70
2022/12/12 14:54:17;;;;;;;;;;;;;;;;;;5096109;28;19965;-70
2022/12/12 14:56:43;;;;;;;;;;;;;;;;;;5096663;28;19908;-70
2022/12/12 14:59:09;;;;;;;;;;;;;;;;;;5096857;28;19913;-70
2022/12/12 15:01:35;;;;;;;;;;;;;;;;;;5095700;28;19915;-71
2022/12/12 15:04:01;;;;;;;;;;;;;;;;;;5078097;28;20372;-70
2022/12/12 15:06:27;;;;;;;;;;;;;;;;;;5096243;28;19942;-71
2022/12/12 15:08:53;;;;;;;;;;;;;;;;;;5095804;28;19908;-70
2022/12/12 15:11:19;;;;;;;;;;;;;;;;;;5078074;28;19912;-70
2022/12/12 15:13:44;;;;;;;;;;;;;;;;;;5096113;28;19916;-70
2022/12/12 15:16:10;;;;;;;;;;;;;;;;;;5095753;28;19908;-70
2022/12/12 15:18:36;;;;;;;;;;;;;;;;;;5096069;28;20022;-70
2022/12/12 15:21:02;;;;;;;;;;;;;;;;;;5096020;28;19934;-70
2022/12/12 15:23:28;;;;;;;;;;;;;;;;;;5095630;28;20078;-70
2022/12/12 15:25:54;;;;;;;;;;;;;;;;;;5095889;28;19949;-70
2022/12/12 15:28:20;;;;;;;;;;;;;;;;;;5077266;28;20004;-70
2022/12/12 15:30:46;;;;;;;;;;;;;;;;;;5095882;28;19995;-70
2022/12/12 15:33:12;;;;;;;;;;;;;;;;;;5095488;28;20337;-70
2022/12/12 15:35:38;;;;;;;;;;;;;;;;;;5095279;28;19908;-70
2022/12/12 15:38:04;;;;;;;;;;;;;;;;;;5095681;28;19915;-70
2022/12/12 15:40:30;;;;;;;;;;;;;;;;;;5095622;28;20280;-70
2022/12/12 15:42:56;;;;;;;;;;;;;;;;;;5095490;28;19908;-71
2022/12/12 15:45:22;;;;;;;;;;;;;;;;;;5095443;28;20006;-70
2022/12/12 15:47:48;;;;;;;;;;;;;;;;;;5095508;28;19908;-70
2022/12/12 15:50:14;;;;;;;;;;;;;;;;;;5095244;28;20276;-70
2022/12/12 15:52:40;;;;;;;;;;;;;;;;;;5077167;28;19970;-70
2022/12/12 15:55:06;;;;;;;;;;;;;;;;;;5076618;28;19908;-70
2022/12/12 15:57:33;;;;;;;;;;;;;;;;;;5094743;28;20034;-70
2022/12/12 15:59:59;;;;;;;;;;;;;;;;;;5095152;28;19919;-70
2022/12/12 16:02:25;;;;;;;;;;;;;;;;;;5095513;28;19908;-70
2022/12/12 16:04:51;;;;;;;;;;;;;;;;;;5094923;28;19908;-70
2022/12/12 16:07:16;;;;;;;;;;;;;;;;;;5094935;28;20036;-70
2022/12/12 16:09:42;;;;;;;;;;;;;;;;;;5094973;28;19912;-70
2022/12/12 16:12:09;;;;;;;;;;;;;;;;;;5094612;28;19927;-71
2022/12/12 16:14:35;;;;;;;;;;;;;;;;;;5076947;28;20015;-70
2022/12/12 16:17:02;;;;;;;;;;;;;;;;;;5095072;28;20356;-70
2022/12/12 16:19:28;;;;;;;;;;;;;;;;;;5094505;28;19908;-71
2022/12/12 16:21:54;;;;;;;;;;;;;;;;;;5095133;28;20348;-70
2022/12/12 16:24:20;;;;;;;;;;;;;;;;;;5094801;28;20394;-70
2022/12/12 16:26:46;;;;;;;;;;;;;;;;;;5094468;28;20357;-70
2022/12/12 16:29:12;;;;;;;;;;;;;;;;;;5076587;28;19908;-70
2022/12/12 16:31:38;;;;;;;;;;;;;;;;;;5075827;28;19915;-70
2022/12/12 16:34:03;;;;;;;;;;;;;;;;;;5094523;28;19912;-70
2022/12/12 16:36:29;;;;;;;;;;;;;;;;;;5094422;28;19995;-70
2022/12/12 16:38:55;;;;;;;;;;;;;;;;;;5093909;28;19915;-71
2022/12/12 16:41:21;;;;;;;;;;;;;;;;;;5095005;28;19980;-72
2022/12/12 16:43:47;;;;;;;;;;;;;;;;;;5076160;28;20078;-71
2022/12/12 16:46:13;;;;;;;;;;;;;;;;;;5093907;28;19908;-71
2022/12/12 16:48:39;;;;;;;;;;;;;;;;;;5076108;28;19943;-71
2022/12/12 16:51:05;;;;;;;;;;;;;;;;;;5094730;28;19954;-71
2022/12/12 16:53:31;;;;;;;;;;;;;;;;;;5075501;28;19916;-71
2022/12/12 16:55:57;;;;;;;;;;;;;;;;;;5075882;28;19987;-71
2022/12/12 16:58:23;;;;;;;;;;;;;;;;;;5075921;28;19915;-71
2022/12/12 17:00:51;;;;;;;;;;;;;;;;;;5075583;28;19966;-71
2022/12/12 17:03:17;;;;;;;;;;;;;;;;;;5094020;28;19955;-71
2022/12/12 17:05:43;;;;;;;;;;;;;;;;;;5075784;28;19908;-71
2022/12/12 17:08:09;;;;;;;;;;;;;;;;;;5075183;28;19919;-71
2022/12/12 17:10:35;;;;;;;;;;;;;;;;;;5093867;28;19908;-71
2022/12/12 17:13:01;;;;;;;;;;;;;;;;;;5093823;28;19916;-72